Time;durP1;ratioP1;P1;durP2;ratioP2;P2;SDS_P1;SDS_P2;PMS_P1;PMS_P2;Temp;Humidity;BMP_temperature;BMP_pressure;BME280_temperature;BME280_humidity;BME280_pressure;Samples;Min_cycle;Max_cycle;Signal;HPM_P1;HPM_P2
2022/08/17 00:01:17;;;;;;;6.03;5.30;;;;;;;22.58;51.61;94640.38;5036620;28;20221;-63
2022/08/17 00:03:45;;;;;;;5.20;4.70;;;;;;;22.39;52.22;94639.69;5038702;28;20232;-63
2022/08/17 00:06:18;;;;;;;6.40;5.32;;;;;;;22.42;51.83;94637.34;5041525;28;20218;-63
2022/08/17 00:08:47;;;;;;;4.93;4.53;;;;;;;22.43;52.11;94651.59;5046205;28;20268;-62
2022/08/17 00:11:21;;;;;;;5.38;4.88;;;;;;;22.34;52.55;94645.75;5040558;28;20226;-62
2022/08/17 00:13:51;;;;;;;6.63;5.30;;;;;;;;;;5033006;28;20225;-62
2022/08/17 00:16:30;;;;;;;6.10;4.93;;;;;;;22.23;53.13;94647.38;5037805;28;20222;-61
2022/08/17 00:18:57;;;;;;;8.02;5.70;;;;;;;22.14;53.52;94640.72;5044138;28;20212;-62
2022/08/17 00:21:22;;;;;;;7.80;5.50;;;;;;;22.10;53.98;94642.22;5035713;28;20230;-61
2022/08/17 00:23:48;;;;;;;6.10;5.50;;;;;;;22.13;54.08;94644.47;5037306;28;20218;-61
2022/08/17 00:26:14;;;;;;;6.13;5.53;;;;;;;22.10;54.37;94647.59;5043365;28;20214;-61
2022/08/17 00:28:40;;;;;;;8.23;5.57;;;;;;;22.04;54.56;94648.53;5042868;28;20205;-61
2022/08/17 00:31:08;;;;;;;6.00;5.47;;;;;;;22.00;54.58;94647.38;5039110;28;20268;-62
2022/08/17 00:33:35;;;;;;;6.93;6.20;;;;;;;21.94;54.85;94641.06;5042120;28;20725;-62
2022/08/17 00:36:01;;;;;;;7.30;5.65;;;;;;;22.04;54.58;94637.81;5040590;28;20277;-62
2022/08/17 00:38:27;;;;;;;6.15;5.50;;;;;;;21.94;54.76;94642.91;5040430;28;20641;-62
2022/08/17 00:40:57;;;;;;;7.25;5.50;;;;;;;21.77;55.15;94634.75;5042473;28;20357;-61
2022/08/17 00:43:28;;;;;;;7.95;5.88;;;;;;;21.88;55.14;94639.31;5039480;28;20213;-61
2022/08/17 00:45:53;;;;;;;6.32;5.72;;;;;;;21.66;55.67;94636.38;5037894;28;20348;-62
2022/08/17 00:48:19;;;;;;;7.32;6.30;;;;;;;21.64;55.99;94626.94;5038589;28;20305;-62
2022/08/17 00:50:58;;;;;;;8.77;6.65;;;;;;;21.53;56.18;94624.00;5037341;28;20281;-62
2022/08/17 00:53:27;;;;;;;7.32;5.93;;;;;;;21.63;56.12;94623.47;5047187;28;20233;-62
2022/08/17 00:55:54;;;;;;;9.60;6.22;;;;;;;21.65;56.09;94626.72;5036695;28;20206;-62
2022/08/17 00:58:20;;;;;;;6.28;5.63;;;;;;;21.66;55.36;94627.53;5035335;28;20275;-62
2022/08/17 01:00:48;;;;;;;7.53;5.13;;;;;;;21.71;53.85;94628.47;5037251;28;20218;-61
2022/08/17 01:03:20;;;;;;;6.75;5.13;;;;;;;21.69;54.03;94621.72;5037422;28;20223;-62
2022/08/17 01:05:50;;;;;;;6.63;5.30;;;;;;;21.49;54.77;94630.88;5034084;28;20214;-62
2022/08/17 01:08:20;;;;;;;7.57;5.30;;;;;;;21.44;54.31;94630.75;5037170;28;20228;-61
2022/08/17 01:10:50;;;;;;;6.35;5.30;;;;;;;21.40;54.69;94636.78;5030704;28;20297;-62
2022/08/17 01:13:16;;;;;;;5.57;4.63;;;;;;;21.39;54.50;94633.28;5035562;28;20218;-62
2022/08/17 01:15:47;;;;;;;5.35;4.75;;;;;;;21.35;54.16;94632.06;5040380;28;20233;-61
2022/08/17 01:18:14;;;;;;;6.13;4.82;;;;;;;21.44;54.16;94636.09;5041618;28;20292;-63
2022/08/17 01:20:46;;;;;;;6.35;4.88;;;;;;;21.47;53.70;94641.00;5038585;28;20223;-63
2022/08/17 01:23:12;;;;;;;9.68;5.47;;;;;;;21.22;54.37;94640.28;5042800;28;20202;-62
2022/08/17 01:25:37;;;;;;;6.38;4.68;;;;;;;21.29;54.42;94635.66;5039450;28;20224;-63
2022/08/17 01:28:04;;;;;;;5.15;4.65;;;;;;;21.18;55.00;94639.13;5039739;28;20217;-62
2022/08/17 01:30:29;;;;;;;7.68;5.13;;;;;;;21.13;54.99;94635.25;5038887;28;20256;-62
2022/08/17 01:32:55;;;;;;;6.47;4.82;;;;;;;21.15;54.44;94627.00;5033404;28;20688;-62
2022/08/17 01:35:20;;;;;;;6.43;4.97;;;;;;;21.02;55.58;94619.19;5040776;28;20205;-62
2022/08/17 01:37:46;;;;;;;5.88;4.97;;;;;;;21.07;55.62;94624.66;5035449;28;20202;-62
2022/08/17 01:40:45;;;;;;;9.48;5.10;;;;;;;21.06;55.42;94626.53;5036586;28;20256;-62
2022/08/17 01:43:18;;;;;;;5.60;4.85;;;;;;;20.93;55.52;94624.03;4948046;28;20236;-62
2022/08/17 01:45:49;;;;;;;8.35;4.55;;;;;;;20.89;55.87;94628.19;4956186;28;20537;-62
2022/08/17 01:48:14;;;;;;;5.78;4.68;;;;;;;20.91;56.11;94634.13;4965164;28;20224;-62
2022/08/17 01:50:43;;;;;;;6.22;4.72;;;;;;;20.84;56.54;94622.69;4950171;28;20235;-62
2022/08/17 01:53:15;;;;;;;7.72;4.60;;;;;;;20.87;56.04;94614.22;4953257;28;20243;-61
2022/08/17 01:55:52;;;;;;;7.13;5.07;;;;;;;20.90;56.14;94629.78;4954049;28;20261;-62
2022/08/17 01:58:19;;;;;;;6.70;4.95;;;;;;;20.89;56.22;94633.53;4964015;28;20238;-61
2022/08/17 02:00:47;;;;;;;6.95;5.70;;;;;;;20.83;56.74;94626.41;4960825;28;20235;-61
2022/08/17 02:03:13;;;;;;;7.45;5.70;;;;;;;20.83;57.19;94631.75;4949887;28;20282;-62
2022/08/17 02:05:39;;;;;;;7.97;5.97;;;;;;;20.85;57.44;94632.31;4949992;28;20224;-62
2022/08/17 02:08:06;;;;;;;6.30;5.70;;;;;;;20.79;57.86;94631.38;4951343;28;20657;-61
2022/08/17 02:10:32;;;;;;;6.25;4.80;;;;;;;20.61;57.59;94634.88;4949858;29;20823;-62
2022/08/17 02:12:58;;;;;;;5.45;4.90;;;;;;;20.61;57.21;94645.56;4951500;28;20220;-62
2022/08/17 02:15:24;;;;;;;6.07;4.90;;;;;;;20.46;57.84;94639.75;4950958;28;20696;-62
2022/08/17 02:17:49;;;;;;;6.88;5.70;;;;;;;20.39;58.71;94644.34;4966304;28;20238;-62
2022/08/17 02:20:15;;;;;;;6.78;5.93;;;;;;;20.43;59.16;94645.53;5020241;28;20256;-62
2022/08/17 02:22:45;;;;;;;6.80;5.97;;;;;;;20.33;59.87;94634.56;5037740;28;20214;-61
2022/08/17 02:25:13;;;;;;;7.47;6.57;;;;;;;20.33;60.10;94639.88;5035694;28;20221;-62
2022/08/17 02:27:39;;;;;;;7.78;5.95;;;;;;;20.30;60.06;94635.00;5043837;28;20224;-62
2022/08/17 02:30:07;;;;;;;8.73;5.97;;;;;;;20.30;59.99;94640.34;5043478;28;20222;-62
2022/08/17 02:32:33;;;;;;;6.35;5.18;;;;;;;20.31;59.92;94636.63;5035992;28;20565;-62
2022/08/17 02:34:59;;;;;;;6.75;5.85;;;;;;;20.39;59.27;94636.31;5034820;28;20198;-61
2022/08/17 02:37:26;;;;;;;8.02;6.13;;;;;;;20.42;59.46;94638.53;5035371;28;20222;-62
2022/08/17 02:39:53;;;;;;;9.23;6.30;;;;;;;20.47;59.14;94638.69;5034679;28;20241;-62
2022/08/17 02:42:26;;;;;;;6.60;5.43;;;;;;;20.36;59.33;94636.78;5042345;28;20241;-62
2022/08/17 02:44:52;;;;;;;10.23;6.07;;;;;;;20.30;59.15;94637.66;5041194;28;20240;-62
2022/08/17 02:47:17;;;;;;;6.60;5.47;;;;;;;20.28;58.95;94638.69;5045900;28;20209;-62
2022/08/17 02:49:42;;;;;;;8.15;6.30;;;;;;;20.26;58.64;94643.44;5040573;28;20202;-62
2022/08/17 02:52:08;;;;;;;6.55;5.80;;;;;;;20.11;59.16;94642.97;5036647;28;20258;-62
2022/08/17 02:54:35;;;;;;;6.35;5.40;;;;;;;20.11;59.26;94639.50;5039058;28;20224;-62
2022/08/17 02:57:02;;;;;;;7.78;5.15;;;;;;;20.17;58.67;94641.28;5048334;28;20309;-61
2022/08/17 02:59:28;;;;;;;5.65;5.15;;;;;;;20.10;58.49;94643.19;5032835;28;20227;-61
2022/08/17 03:01:54;;;;;;;7.85;5.90;;;;;;;20.13;58.50;94640.06;5044479;28;20206;-62
2022/08/17 03:04:20;;;;;;;7.57;5.35;;;;;;;20.11;58.93;94653.66;5037856;28;20229;-62
2022/08/17 03:06:45;;;;;;;7.40;5.68;;;;;;;19.90;60.47;94656.72;5040749;28;20226;-62
2022/08/17 03:09:10;;;;;;;6.03;5.47;;;;;;;19.95;60.72;94652.34;5038605;28;20225;-62
2022/08/17 03:11:36;;;;;;;7.28;6.45;;;;;;;19.84;61.49;94639.72;5038865;28;20217;-61
2022/08/17 03:14:01;;;;;;;7.38;6.22;;;;;;;19.98;61.67;94654.59;5041288;28;20212;-62
2022/08/17 03:16:27;;;;;;;10.98;6.20;;;;;;;19.98;61.64;94657.25;5034999;28;20226;-61
2022/08/17 03:18:53;;;;;;;7.20;6.60;;;;;;;20.14;61.31;94660.41;5040332;28;20225;-61
2022/08/17 03:21:19;;;;;;;8.52;6.20;;;;;;;19.95;61.82;94663.03;5045121;28;20272;-61
2022/08/17 03:23:44;;;;;;;8.60;6.68;;;;;;;19.93;62.13;94661.63;5040065;28;20217;-61
2022/08/17 03:26:10;;;;;;;10.23;6.65;;;;;;;19.80;62.68;94666.00;5037357;28;20236;-62
2022/08/17 03:28:37;;;;;;;7.47;6.82;;;;;;;19.88;62.57;94666.78;5041498;28;20228;-62
2022/08/17 03:31:03;;;;;;;7.05;6.50;;;;;;;19.89;62.42;94663.06;5039111;28;20213;-62
2022/08/17 03:33:29;;;;;;;11.93;7.18;;;;;;;19.91;62.38;94666.34;5038202;28;20218;-63
2022/08/17 03:35:55;;;;;;;8.13;6.38;;;;;;;19.82;62.72;94669.28;5041135;28;20227;-63
2022/08/17 03:38:20;;;;;;;9.52;6.88;;;;;;;19.67;62.96;94660.78;5037528;28;20209;-62
2022/08/17 03:40:47;;;;;;;7.80;6.43;;;;;;;19.69;63.17;94674.72;5042406;28;20283;-62
2022/08/17 03:43:13;;;;;;;6.65;6.05;;;;;;;19.81;62.51;94672.19;5037533;28;20229;-63
2022/08/17 03:56:56;;;;;;;11.27;6.90;;;;;;;19.84;62.13;94674.41;5038617;28;20236;-62
2022/08/17 03:59:21;;;;;;;9.35;6.53;;;;;;;19.76;62.27;94680.84;5040665;28;20231;-61
2022/08/17 04:01:50;;;;;;;8.82;7.18;;;;;;;19.72;62.14;94676.13;5034225;28;20242;-62
2022/08/17 04:04:17;;;;;;;8.25;6.68;;;;;;;19.70;62.02;94681.72;5043298;28;20225;-61
2022/08/17 04:06:42;;;;;;;10.00;6.90;;;;;;;19.71;61.62;94691.34;5044543;28;20234;-61
2022/08/17 04:09:08;;;;;;;7.85;6.65;;;;;;;19.78;61.48;94670.78;5046886;28;20236;-62
2022/08/17 04:11:34;;;;;;;8.48;6.68;;;;;;;19.77;60.97;94673.63;5044090;28;20225;-62
2022/08/17 04:14:01;;;;;;;9.40;7.20;;;;;;;19.71;61.05;94686.00;5039400;28;20237;-62
2022/08/17 04:16:27;;;;;;;10.45;6.13;;;;;;;19.80;60.79;94679.34;5037596;28;20226;-62
2022/08/17 04:18:52;;;;;;;8.88;6.50;;;;;;;19.78;60.61;94697.44;5040281;28;20226;-62
2022/08/17 04:21:19;;;;;;;8.85;6.65;;;;;;;19.73;60.47;94696.47;5040023;28;20221;-61
2022/08/17 04:23:45;;;;;;;8.50;6.97;;;;;;;19.56;61.02;94706.78;5037617;28;20289;-61
2022/08/17 04:26:11;;;;;;;9.10;8.18;;;;;;;19.45;62.00;94707.47;5039332;28;20216;-62
2022/08/17 04:28:37;;;;;;;9.38;8.27;;;;;;;19.71;61.08;94704.66;5040447;28;20229;-62
2022/08/17 04:31:03;;;;;;;11.63;10.52;;;;;;;19.97;60.18;94701.00;5035873;28;20360;-62
2022/08/17 04:33:29;;;;;;;13.75;11.88;;;;;;;19.88;60.63;94698.81;5038562;28;20218;-61
2022/08/17 04:36:00;;;;;;;13.85;12.05;;;;;;;19.96;60.34;94706.53;5034224;28;20226;-61
2022/08/17 04:38:30;;;;;;;12.57;10.88;;;;;;;20.09;59.79;94706.44;5039807;28;20313;-61
2022/08/17 04:43:43;;;;;;;9.05;8.25;;;;;;;19.76;61.28;94723.53;5033526;28;20233;-61
2022/08/17 04:46:14;;;;;;;9.95;9.10;;;;;;;19.90;60.32;94726.91;5037818;28;20230;-61
2022/08/17 04:48:46;;;;;;;12.77;8.70;;;;;;;20.18;59.75;94720.31;5043035;28;20266;-62
2022/08/17 04:51:20;;;;;;;11.85;8.65;;;;;;;20.04;60.14;94722.28;5034108;28;20214;-61
2022/08/17 04:53:48;;;;;;;16.48;8.85;;;;;;;20.17;59.99;94724.84;5033816;28;20221;-61
2022/08/17 04:56:15;;;;;;;9.07;8.18;;;;;;;20.16;60.19;94725.88;5034371;28;20198;-62
2022/08/17 04:58:51;;;;;;;9.88;8.27;;;;;;;20.12;60.21;94724.69;5035082;28;20854;-60
2022/08/17 05:01:19;;;;;;;10.25;7.90;;;;;;;20.09;60.64;94722.44;5035965;28;20305;-62
2022/08/17 05:03:44;;;;;;;8.88;8.07;;;;;;;20.43;59.34;94728.31;5037950;28;20228;-61
2022/08/17 05:06:10;;;;;;;11.63;8.65;;;;;;;20.32;59.71;94724.53;5039440;28;20300;-60
2022/08/17 05:08:37;;;;;;;12.27;8.40;;;;;;;20.45;59.33;94720.91;5034279;28;20248;-60
2022/08/17 05:11:04;;;;;;;10.50;8.65;;;;;;;20.53;58.94;94723.31;5033603;28;20204;-60
2022/08/17 05:13:29;;;;;;;9.77;8.43;;;;;;;20.38;58.70;94720.97;5034904;28;20249;-60
2022/08/17 05:16:01;;;;;;;10.30;9.15;;;;;;;20.33;59.19;94723.47;5020293;28;20249;-60
2022/08/17 05:18:28;;;;;;;11.20;8.07;;;;;;;20.34;58.86;94719.78;5034580;28;20743;-63
2022/08/17 05:20:54;;;;;;;9.18;8.25;;;;;;;20.61;58.03;94725.72;5045067;28;20307;-61
2022/08/17 05:23:21;;;;;;;11.00;8.00;;;;;;;20.64;57.73;94730.63;5042857;28;20260;-62
2022/08/17 05:25:49;;;;;;;9.05;8.18;;;;;;;20.67;57.80;94724.81;5034214;28;20236;-62
2022/08/17 05:28:17;;;;;;;9.15;8.30;;;;;;;20.90;57.47;94732.19;5033861;28;20237;-61
2022/08/17 05:30:44;;;;;;;9.23;7.28;;;;;;;20.86;57.53;94724.84;5035307;28;20579;-61
2022/08/17 05:33:19;;;;;;;9.38;8.32;;;;;;;20.95;57.24;94733.38;5034379;28;20705;-62
2022/08/17 05:35:48;;;;;;;9.18;8.27;;;;;;;21.13;57.02;94739.50;5033073;28;20221;-61
2022/08/17 05:38:15;;;;;;;8.98;7.68;;;;;;;20.99;57.13;94738.03;5040055;28;20209;-60
2022/08/17 05:40:41;;;;;;;10.77;7.57;;;;;;;21.13;56.61;94739.50;5031165;28;20273;-60
2022/08/17 05:43:12;;;;;;;8.95;8.07;;;;;;;21.26;56.09;94733.19;5040425;28;20229;-60
2022/08/17 05:45:56;;;;;;;10.65;8.20;;;;;;;21.33;55.92;94739.28;5032978;28;20236;-61
2022/08/17 05:48:23;;;;;;;10.38;8.15;;;;;;;21.46;55.41;94746.34;5032796;28;20252;-60
2022/08/17 05:51:08;;;;;;;10.68;8.45;;;;;;;21.30;55.87;94731.72;5031130;28;20325;-61
2022/08/17 05:53:40;;;;;;;9.18;7.43;;;;;;;21.44;55.38;94735.06;5042332;28;20365;-60
2022/08/17 05:56:27;;;;;;;10.90;8.45;;;;;;;21.55;54.98;94728.13;5041063;28;20315;-61
2022/08/17 05:59:08;;;;;;;10.40;8.60;;;;;;;21.34;55.85;94727.53;5033856;28;20238;-61
2022/08/17 06:01:36;;;;;;;8.82;7.75;;;;;;;21.41;54.98;94730.19;5040731;28;20225;-62
2022/08/17 06:04:11;;;;;;;11.48;8.70;;;;;;;21.63;54.41;94732.34;5030518;28;20233;-64
2022/08/17 06:06:40;;;;;;;9.80;8.48;;;;;;;21.76;53.76;94729.50;5038462;28;20324;-61
2022/08/17 06:09:30;;;;;;;11.00;9.15;;;;;;;21.67;53.98;94733.50;5033848;28;20218;-62
2022/08/17 06:12:00;;;;;;;10.38;8.93;;;;;;;21.69;54.68;94734.09;5033122;28;20701;-63
2022/08/17 06:14:52;;;;;;;12.77;8.35;;;;;;;21.96;53.80;94731.84;5040792;28;20209;-63
2022/08/17 06:17:21;;;;;;;10.10;8.82;;;;;;;21.63;53.98;94730.47;5035113;28;20229;-61
2022/08/17 06:19:57;;;;;;;9.73;8.88;;;;;;;21.93;53.39;94738.47;5040964;28;20201;-62
2022/08/17 06:22:26;;;;;;;10.15;8.32;;;;;;;22.03;52.87;94735.25;5028088;28;20320;-61
2022/08/17 06:25:01;;;;;;;10.52;9.40;;;;;;;22.14;53.18;94739.81;5033870;28;20249;-63
2022/08/17 06:27:40;;;;;;;10.45;9.20;;;;;;;22.14;53.17;94728.28;5036616;28;20353;-61
2022/08/17 06:30:13;;;;;;;11.60;9.25;;;;;;;22.31;52.85;94733.81;5033059;28;20218;-62
2022/08/17 06:32:43;;;;;;;11.50;9.73;;;;;;;22.35;52.82;94727.75;5036486;28;20237;-61
2022/08/17 06:35:12;;;;;;;13.90;10.35;;;;;;;22.43;52.51;94729.28;5038447;28;20221;-61
2022/08/17 06:38:03;;;;;;;11.35;10.18;;;;;;;22.52;52.34;94730.56;5033524;28;20245;-60
2022/08/17 06:40:31;;;;;;;11.07;9.93;;;;;;;22.43;52.59;94732.78;5043305;28;20230;-61
2022/08/17 06:43:31;;;;;;;11.60;9.73;;;;;;;22.42;52.32;94725.75;5033724;28;20492;-62
2022/08/17 06:46:05;;;;;;;10.95;9.38;;;;;;;22.59;52.41;94719.72;5044192;28;20221;-63
2022/08/17 06:48:45;;;;;;;10.82;8.60;;;;;;;22.70;51.50;94729.63;5034612;28;20230;-62
2022/08/17 06:51:26;;;;;;;10.10;8.85;;;;;;;22.80;51.70;94735.22;5042778;28;20245;-61
2022/08/17 06:54:05;;;;;;;10.80;8.20;;;;;;;22.87;51.23;94725.16;5023803;28;20284;-61
2022/08/17 06:56:38;;;;;;;12.95;7.85;;;;;;;22.85;50.37;94726.44;5037094;28;20266;-61
2022/08/17 06:59:07;;;;;;;9.65;7.75;;;;;;;22.92;50.47;94726.34;5034573;28;20236;-61
2022/08/17 07:01:36;;;;;;;11.82;7.32;;;;;;;23.04;50.35;94732.50;5033530;28;20226;-62
2022/08/17 07:04:14;;;;;;;9.98;7.60;;;;;;;23.11;49.96;94727.84;5034538;28;20233;-62
2022/08/17 07:06:59;;;;;;;9.35;7.95;;;;;;;23.17;49.80;94737.59;5043369;28;20225;-62
2022/08/17 07:09:28;;;;;;;8.80;7.75;;;;;;;23.36;49.54;94737.44;5034621;28;20308;-62
2022/08/17 07:12:01;;;;;;;9.25;6.80;;;;;;;23.40;49.34;94731.38;5037846;28;20226;-62
2022/08/17 07:14:50;;;;;;;9.25;7.40;;;;;;;23.41;50.20;94738.34;5033619;28;20201;-60
2022/08/17 07:17:17;;;;;;;8.75;7.72;;;;;;;23.52;50.02;94734.00;5037455;28;20412;-60
2022/08/17 07:19:45;;;;;;;8.98;7.32;;;;;;;23.46;49.34;94726.91;5038295;28;20267;-61
2022/08/17 07:22:32;;;;;;;12.50;7.53;;;;;;;23.48;48.93;94731.00;5035722;28;20226;-62
2022/08/17 07:25:01;;;;;;;9.20;6.88;;;;;;;23.69;48.80;94726.81;5046283;28;20594;-61
2022/08/17 07:27:29;;;;;;;10.88;7.70;;;;;;;23.89;48.25;94722.91;5041292;28;20288;-61
2022/08/17 07:30:00;;;;;;;10.13;7.35;;;;;;;23.81;48.04;94725.97;5037611;28;20226;-60
2022/08/17 07:32:34;;;;;;;8.70;7.18;;;;;;;23.82;48.22;94725.75;5032761;28;20220;-60
2022/08/17 07:35:11;;;;;;;9.05;7.38;;;;;;;23.99;48.32;94725.78;5041615;28;20244;-61
2022/08/17 07:37:49;;;;;;;9.27;6.70;;;;;;;24.06;48.36;94730.97;5035288;28;20230;-61
2022/08/17 07:40:28;;;;;;;7.63;6.47;;;;;;;24.20;48.14;94729.63;5044845;28;20230;-61
2022/08/17 07:43:09;;;;;;;8.60;6.63;;;;;;;24.31;47.58;94714.47;5038492;28;20221;-61
2022/08/17 07:48:24;;;;;;;9.02;6.22;;;;;;;24.49;46.99;94714.25;5034084;28;20303;-63
2022/08/17 07:50:52;;;;;;;6.88;5.88;;;;;;;24.56;45.84;94712.19;5042706;28;20214;-61
2022/08/17 07:53:23;;;;;;;8.10;6.13;;;;;;;24.63;45.16;94710.16;5039887;28;20190;-62
2022/08/17 07:55:51;;;;;;;6.80;5.88;;;;;;;24.76;45.11;94714.38;5037908;28;20216;-62
2022/08/17 07:58:20;;;;;;;10.13;7.18;;;;;;;24.82;44.75;94717.94;5041529;28;20233;-61
2022/08/17 08:00:45;;;;;;;11.65;6.25;;;;;;;24.91;44.20;94704.88;5045696;28;20226;-61
2022/08/17 08:03:30;;;;;;;7.00;6.30;;;;;;;24.90;44.56;94708.63;5040882;28;20221;-62
2022/08/17 08:06:00;;;;;;;8.20;6.10;;;;;;;25.04;44.23;94713.38;5037964;28;20218;-61
2022/08/17 08:08:54;;;;;;;11.23;6.05;;;;;;;25.02;43.90;94712.84;5042538;28;20236;-61
2022/08/17 08:11:33;;;;;;;7.10;6.40;;;;;;;25.20;43.04;94717.13;5029291;28;20214;-62
2022/08/17 08:14:32;;;;;;;6.00;5.38;;;;;;;25.27;42.14;94707.00;5032138;28;20304;-61
2022/08/17 08:17:04;;;;;;;8.25;5.68;;;;;;;25.35;42.15;94707.63;5035313;28;20229;-61
2022/08/17 08:19:31;;;;;;;6.60;5.85;;;;;;;25.34;42.18;94712.19;5041079;28;20229;-61
2022/08/17 08:22:25;;;;;;;6.13;5.53;;;;;;;25.37;42.52;94703.63;5044365;28;20228;-61
2022/08/17 08:25:12;;;;;;;9.00;5.88;;;;;;;25.48;42.60;94707.22;5031927;28;20338;-61
2022/08/17 08:27:53;;;;;;;9.48;6.05;;;;;;;25.56;42.03;94705.97;5032383;28;20304;-61
2022/08/17 08:30:20;;;;;;;6.30;5.13;;;;;;;25.61;42.03;94695.22;5038493;28;20566;-60
2022/08/17 08:33:02;;;;;;;9.93;6.15;;;;;;;25.74;42.04;94694.81;5039744;28;20240;-60
2022/08/17 08:35:53;;;;;;;37.72;8.85;;;;;;;25.89;41.49;94694.22;5035359;28;20289;-60
2022/08/17 08:38:39;;;;;;;5.80;5.22;;;;;;;25.79;41.87;94689.50;5031494;28;20201;-60
2022/08/17 08:41:43;;;;;;;6.22;5.00;;;;;;;26.01;41.40;94688.66;5032894;28;20347;-62
2022/08/17 08:44:17;;;;;;;5.68;5.03;;;;;;;26.12;41.24;94695.78;4942084;28;20232;-63
2022/08/17 08:46:49;;;;;;;5.25;4.75;;;;;;;26.16;40.46;94691.47;4946669;28;20214;-60
2022/08/17 08:49:35;;;;;;;6.97;5.07;;;;;;;26.28;40.19;94689.44;4946339;28;20274;-62
2022/08/17 08:52:11;;;;;;;6.28;5.00;;;;;;;26.29;40.19;94682.16;4965096;28;20231;-62
2022/08/17 08:55:03;;;;;;;4.93;4.53;;;;;;;26.29;40.39;94674.88;4966453;28;20232;-62
2022/08/17 08:57:56;;;;;;;5.57;4.65;;;;;;;26.52;40.79;94675.63;4963598;28;20231;-61
2022/08/17 09:00:24;;;;;;;8.52;4.85;;;;;;;26.70;39.86;94677.06;4944806;28;20235;-62
2022/08/17 09:02:52;;;;;;;6.10;4.88;;;;;;;26.81;39.11;94670.63;4944174;28;20232;-61
2022/08/17 09:05:24;;;;;;;5.45;4.03;;;;;;;26.99;38.94;94672.88;4943885;28;20639;-63
2022/08/17 09:08:31;;;;;;;6.95;4.38;;;;;;;26.99;38.24;94674.78;4950966;28;20730;-62
2022/08/17 09:11:27;;;;;;;6.30;4.07;;;;;;;26.80;38.13;94680.63;4967198;28;20255;-61
2022/08/17 09:14:04;;;;;;;4.80;4.30;;;;;;;26.88;37.27;94673.91;4937965;28;20229;-61
2022/08/17 09:16:35;;;;;;;7.35;4.45;;;;;;;26.77;36.82;94672.25;4948206;28;20234;-62
2022/08/17 09:19:13;;;;;;;6.72;3.80;;;;;;;26.83;36.24;94680.09;5029556;28;20209;-62
2022/08/17 09:22:02;;;;;;;5.32;3.83;;;;;;;26.99;36.39;94672.88;5034274;28;20236;-62
2022/08/17 09:24:42;;;;;;;4.03;3.63;;;;;;;27.14;36.16;94680.25;5030992;28;20222;-62
2022/08/17 09:27:13;;;;;;;4.20;3.80;;;;;;;27.26;36.74;94682.75;5037062;28;20217;-62
2022/08/17 09:29:44;;;;;;;5.30;3.30;;;;;;;27.41;35.23;94680.09;5038988;28;20232;-62
2022/08/17 09:32:19;;;;;;;5.97;3.60;;;;;;;27.55;34.72;94674.19;5038563;28;20260;-62
2022/08/17 09:34:55;;;;;;;4.78;3.88;;;;;;;27.54;35.32;94683.41;5043633;28;20320;-62
2022/08/17 09:37:31;;;;;;;4.95;3.97;;;;;;;27.71;35.56;94682.06;5041669;28;20279;-62
2022/08/17 09:40:22;;;;;;;5.35;3.70;;;;;;;27.87;33.41;94676.72;5036666;28;20236;-62
2022/08/17 09:42:53;;;;;;;4.15;3.80;;;;;;;27.94;33.96;94679.97;5039746;28;20226;-62
2022/08/17 09:45:39;;;;;;;4.78;4.05;;;;;;;27.96;33.72;94677.84;5039554;28;20209;-62
2022/08/17 09:48:16;;;;;;;7.38;3.78;;;;;;;28.10;33.60;94675.41;5036364;28;20225;-62
2022/08/17 09:51:17;;;;;;;5.00;3.78;;;;;;;28.19;33.25;94679.16;5031392;28;20286;-62
2022/08/17 09:53:42;;;;;;;6.35;3.92;;;;;;;28.25;32.64;94677.28;5034648;28;20214;-62
2022/08/17 09:56:24;;;;;;;3.65;3.35;;;;;;;28.25;33.54;94674.56;5037603;28;20219;-62
2022/08/17 09:59:21;;;;;;;5.38;4.00;;;;;;;28.33;33.22;94663.22;5033142;28;20237;-62
2022/08/17 10:02:08;;;;;;;4.88;3.47;;;;;;;28.35;31.96;94666.47;4994597;28;20318;-62
2022/08/17 10:04:59;;;;;;;5.20;3.97;;;;;;;28.38;32.41;94664.00;4976749;28;20234;-62
2022/08/17 10:07:35;;;;;;;4.45;3.65;;;;;;;28.58;31.63;94665.13;4995075;28;20341;-62
2022/08/17 10:10:24;;;;;;;6.80;4.18;;;;;;;28.66;31.54;94653.75;4962450;28;20761;-62
2022/08/17 10:13:05;;;;;;;4.63;3.75;;;;;;;28.70;30.58;94654.00;4977832;28;20234;-62
2022/08/17 10:15:35;;;;;;;5.07;3.30;;;;;;;28.68;30.95;94657.00;4983135;28;20249;-62
2022/08/17 10:18:07;;;;;;;3.85;3.33;;;;;;;28.78;30.57;94653.44;4990740;28;20227;-62
2022/08/17 10:20:44;;;;;;;3.92;3.15;;;;;;;28.78;31.15;94643.41;4984514;28;20208;-62
2022/08/17 10:26:15;;;;;;;4.13;3.13;;;;;;;28.94;29.59;94649.59;4994195;28;20230;-61
2022/08/17 10:28:58;;;;;;;3.90;3.28;;;;;;;29.08;30.27;94657.97;4997038;28;20222;-63
2022/08/17 10:31:28;;;;;;;5.13;3.50;;;;;;;29.14;30.36;94650.66;4994693;28;20212;-61
2022/08/17 10:34:26;;;;;;;4.75;3.40;;;;;;;29.18;30.20;94640.88;4982207;28;20245;-61
2022/08/17 10:37:08;;;;;;;5.43;3.67;;;;;;;29.36;29.33;94642.94;4992678;28;20223;-61
2022/08/17 10:40:12;;;;;;;6.00;3.85;;;;;;;29.43;29.75;94646.19;5031462;28;20296;-64
2022/08/17 10:42:53;;;;;;;4.72;3.38;;;;;;;29.50;30.24;94639.63;4949165;28;20232;-64
2022/08/17 10:45:28;;;;;;;3.83;3.40;;;;;;;29.67;28.97;94637.38;4953485;28;20220;-64
2022/08/17 10:48:28;;;;;;;4.85;3.50;;;;;;;29.80;28.41;94635.94;4966594;28;20231;-63
2022/08/17 10:51:28;;;;;;;4.38;4.03;;;;;;;29.76;28.88;94643.84;4951755;28;20236;-63
2022/08/17 10:54:00;;;;;;;9.43;3.92;;;;;;;29.87;29.49;94620.97;4968213;28;20255;-64
2022/08/17 10:56:41;;;;;;;4.53;3.75;;;;;;;30.03;28.37;94637.13;4971136;28;20250;-63
2022/08/17 10:59:07;;;;;;;4.47;3.88;;;;;;;30.01;27.91;94633.88;4955667;28;20212;-61
2022/08/17 11:01:32;;;;;;;4.95;3.60;;;;;;;30.02;28.34;94635.50;4966843;28;20251;-62
2022/08/17 11:04:20;;;;;;;4.10;3.70;;;;;;;30.11;28.60;94631.09;4957484;28;20232;-64
2022/08/17 11:06:52;;;;;;;4.38;3.70;;;;;;;30.20;27.85;94618.53;4929319;29;20793;-61
2022/08/17 11:09:23;;;;;;;5.35;3.72;;;;;;;30.20;27.34;94626.66;4930568;29;20225;-63
2022/08/17 11:12:02;;;;;;;4.10;3.80;;;;;;;30.22;28.00;94616.34;4923776;29;20246;-62
2022/08/17 11:14:49;;;;;;;5.43;3.88;;;;;;;30.45;28.02;94622.16;4927460;29;20237;-63
2022/08/17 11:17:28;;;;;;;4.28;3.67;;;;;;;30.46;27.78;94623.78;4931981;29;20214;-64
2022/08/17 11:20:27;;;;;;;4.20;3.80;;;;;;;30.21;28.28;94620.19;4967680;28;20215;-63
2022/08/17 11:23:27;;;;;;;4.50;4.03;;;;;;;30.40;27.04;94612.16;4999589;28;20239;-63
2022/08/17 11:25:56;;;;;;;8.55;4.30;;;;;;;30.44;27.41;94631.38;4998298;28;20234;-63
2022/08/17 11:28:33;;;;;;;4.03;3.72;;;;;;;30.40;27.82;94631.16;5009614;28;20231;-63
2022/08/17 11:31:07;;;;;;;4.20;3.78;;;;;;;30.46;27.35;94623.78;5007424;28;20219;-63
2022/08/17 11:33:32;;;;;;;5.18;4.63;;;;;;;30.85;26.80;94614.69;4985324;28;20555;-63
2022/08/17 11:37:00;;;;;;;6.15;5.63;;;;;;;31.31;27.19;94625.00;4986858;28;20226;-63
2022/08/17 11:39:47;;;;;;;3.60;3.15;;;;;;;31.53;26.66;94627.19;4927815;29;20237;-61
2022/08/17 11:42:48;;;;;;;3.50;3.17;;;;;;;31.91;26.66;94625.25;4928245;29;20240;-60
2022/08/17 11:45:22;;;;;;;5.43;3.90;;;;;;;32.17;26.39;94624.88;4874537;29;20227;-62
2022/08/17 11:53:59;;;;;;;4.95;4.47;;;;;;;31.94;27.75;94627.41;4873277;29;20319;-61
2022/08/17 11:56:30;;;;;;;5.78;4.38;;;;;;;31.74;28.53;94633.13;4874273;29;20226;-61
2022/08/17 11:58:57;;;;;;;4.65;4.13;;;;;;;31.61;29.08;94643.63;4874577;29;20208;-61
2022/08/17 12:01:23;;;;;;;4.55;4.00;;;;;;;31.69;29.01;94652.22;4861966;29;20774;-61
2022/08/17 12:04:20;;;;;;;4.93;4.40;;;;;;;31.62;29.49;94647.97;4875401;29;20255;-61
2022/08/17 12:06:55;;;;;;;4.95;4.55;;;;;;;31.09;29.91;94656.22;4859552;29;20255;-61
2022/08/17 12:09:25;;;;;;;5.47;4.97;;;;;;;31.00;30.71;94652.53;4855884;29;20241;-61
2022/08/17 12:11:58;;;;;;;5.90;5.13;;;;;;;30.88;31.23;94655.66;4868722;29;20241;-61
2022/08/17 12:14:27;;;;;;;5.88;5.28;;;;;;;30.75;31.34;94650.88;4947225;28;20209;-62
2022/08/17 12:17:12;;;;;;;5.85;5.35;;;;;;;30.87;31.03;94653.22;4948731;28;20204;-61
2022/08/17 12:19:40;;;;;;;5.57;4.90;;;;;;;31.65;29.76;94660.19;4948609;28;20248;-61
2022/08/17 12:22:19;;;;;;;4.95;4.55;;;;;;;32.11;27.88;94654.06;5018043;28;20229;-60
2022/08/17 12:24:50;;;;;;;4.43;4.13;;;;;;;32.18;28.25;94654.47;5042714;28;20248;-62
2022/08/17 12:27:23;;;;;;;5.47;4.70;;;;;;;32.24;27.90;94656.03;5037135;28;20225;-62